Time,TemperatureF,DewpointF,PressureIn,WindDirection,WindDirectionDegrees,WindSpeedMPH,WindSpeedGustMPH,Humidity,HourlyPrecipIn,Conditions,Clouds,dailyrainin,SoftwareType,DateUTC
2013-04-18 00:00:00,61.0,59.3,30.19,SE,127,0.0,0.0,94,0.00,,---,0.00,VWS V14.00,2013-04-18 04:00:00,
2013-04-18 00:01:00,61.0,59.3,30.19,SE,127,0.0,0.0,94,0.00,,---,0.00,VWS V14.00,2013-04-18 04:01:00,
2013-04-18 00:06:00,60.8,59.1,30.18,SE,127,0.0,0.0,94,0.00,,---,0.00,VWS V14.00,2013-04-18 04:06:00,
2013-04-18 00:11:00,60.7,59.0,30.18,SE,127,0.0,0.0,94,0.00,,---,0.00,VWS V14.00,2013-04-18 04:11:00,
2013-04-18 00:16:00,60.8,59.4,30.19,SE,127,0.0,0.0,95,0.00,,---,0.00,VWS V14.00,2013-04-18 04:16:00,
2013-04-18 00:21:00,61.1,59.7,30.19,SE,127,0.0,0.0,95,0.00,,---,0.00,VWS V14.00,2013-04-18 04:21:00,
2013-04-18 00:26:00,61.4,60.0,30.19,SE,127,0.0,0.0,95,0.00,,---,0.00,VWS V14.00,2013-04-18 04:26:00,
2013-04-18 00:31:00,61.5,60.1,30.19,SE,127,0.0,0.0,95,0.00,,---,0.00,VWS V14.00,2013-04-18 04:31:00,
2013-04-18 00:36:00,61.6,60.2,30.19,SE,127,0.0,0.0,95,0.00,,---,0.00,VWS V14.00,2013-04-18 04:36:00,
2013-04-18 00:41:00,61.6,60.2,30.19,SE,127,0.0,0.0,95,0.00,,---,0.00,VWS V14.00,2013-04-18 04:41:00,
2013-04-18 00:46:00,61.7,60.3,30.19,SE,127,0.0,0.0,95,0.00,,---,0.00,VWS V14.00,2013-04-18 04:46:00,
2013-04-18 00:51:00,61.7,60.3,30.19,SE,127,0.0,0.0,95,0.00,,---,0.00,VWS V14.00,2013-04-18 04:51:00,
2013-04-18 00:56:00,61.6,60.2,30.19,SE,127,0.0,0.0,95,0.00,,---,0.00,VWS V14.00,2013-04-18 04:56:00,
2013-04-18 01:01:00,61.5,60.1,30.19,SE,127,0.0,0.0,95,0.00,,---,0.00,VWS V14.00,2013-04-18 05:01:00,
2013-04-18 01:06:00,61.0,59.3,30.19,SE,127,0.0,0.0,94,0.00,,---,0.00,VWS V14.00,2013-04-18 05:06:00,
2013-04-18 01:11:00,60.7,59.0,30.18,SE,127,0.0,0.0,94,0.00,,---,0.00,VWS V14.00,2013-04-18 05:11:00,
2013-04-18 01:16:00,60.6,59.2,30.18,SE,127,0.0,0.0,95,0.00,,---,0.00,VWS V14.00,2013-04-18 05:16:00,
2013-04-18 01:21:00,60.7,59.3,30.18,SE,127,0.0,0.0,95,0.00,,---,0.00,VWS V14.00,2013-04-18 05:21:00,
2013-04-18 01:26:00,60.7,59.3,30.18,SE,127,0.0,0.0,95,0.00,,---,0.00,VWS V14.00,2013-04-18 05:26:00,
2013-04-18 01:31:00,60.3,58.6,30.18,SE,127,0.0,0.0,94,0.00,,---,0.00,VWS V14.00,2013-04-18 05:31:00,
2013-04-18 01:36:00,59.9,58.2,30.18,SE,127,0.0,0.0,94,0.00,,---,0.00,VWS V14.00,2013-04-18 05:36:00,
2013-04-18 01:41:00,59.5,57.5,30.17,SE,127,0.0,0.0,93,0.00,,---,0.00,VWS V14.00,2013-04-18 05:41:00,
2013-04-18 01:46:00,59.3,57.6,30.17,SE,127,0.0,0.0,94,0.00,,---,0.00,VWS V14.00,2013-04-18 05:46:00,
2013-04-18 01:51:00,59.1,57.4,30.17,SE,127,0.0,0.0,94,0.00,,---,0.00,VWS V14.00,2013-04-18 05:51:00,
2013-04-18 01:56:00,59.1,57.4,30.17,SE,127,0.0,0.0,94,0.00,,---,0.00,VWS V14.00,2013-04-18 05:56:00,
2013-04-18 02:01:00,59.2,57.5,30.17,SE,127,0.0,0.0,94,0.00,,---,0.00,VWS V14.00,2013-04-18 06:01:00,
2013-04-18 02:06:00,59.1,57.4,30.17,SE,127,0.0,0.0,94,0.00,,---,0.00,VWS V14.00,2013-04-18 06:06:00,
2013-04-18 02:11:00,58.8,57.1,30.17,SE,127,0.0,0.0,94,0.00,,---,0.00,VWS V14.00,2013-04-18 06:11:00,
2013-04-18 02:16:00,58.5,56.8,30.16,SE,127,0.0,0.0,94,0.00,,---,0.00,VWS V14.00,2013-04-18 06:16:00,
2013-04-18 02:21:00,58.3,56.6,30.16,SE,127,0.0,0.0,94,0.00,,---,0.00,VWS V14.00,2013-04-18 06:21:00,
2013-04-18 02:26:00,58.1,56.4,30.16,SE,127,0.0,0.0,94,0.00,,---,0.00,VWS V14.00,2013-04-18 06:26:00,
2013-04-18 02:31:00,58.0,56.3,30.16,SE,127,0.0,0.0,94,0.00,,---,0.00,VWS V14.00,2013-04-18 06:31:00,
2013-04-18 02:36:00,58.0,56.3,30.16,SE,127,0.0,0.0,94,0.00,,---,0.00,VWS V14.00,2013-04-18 06:36:00,
2013-04-18 02:41:00,58.1,56.7,30.16,SE,127,0.0,0.0,95,0.00,,---,0.00,VWS V14.00,2013-04-18 06:41:00,
2013-04-18 02:46:00,58.2,56.5,30.15,SE,127,0.0,0.0,94,0.00,,---,0.00,VWS V14.00,2013-04-18 06:46:00,
2013-04-18 02:51:00,57.7,56.0,30.15,SE,127,0.0,0.0,94,0.00,,---,0.00,VWS V14.00,2013-04-18 06:51:00,
2013-04-18 02:56:00,57.6,56.2,30.15,SE,127,0.0,0.0,95,0.00,,---,0.00,VWS V14.00,2013-04-18 06:56:00,
2013-04-18 03:01:00,57.7,56.3,30.15,SE,127,0.0,0.0,95,0.00,,---,0.00,VWS V14.00,2013-04-18 07:01:00,
2013-04-18 03:06:00,57.7,56.3,30.15,SE,127,0.0,0.0,95,0.00,,---,0.00,VWS V14.00,2013-04-18 07:06:00,
2013-04-18 03:11:00,57.4,55.7,30.15,SE,127,0.0,0.0,94,0.00,,---,0.00,VWS V14.00,2013-04-18 07:11:00,
2013-04-18 03:17:00,57.1,55.4,30.15,SE,127,0.0,0.0,94,0.00,,---,0.00,VWS V14.00,2013-04-18 07:17:00,
2013-04-18 03:21:00,57.1,55.7,30.15,SE,127,0.0,0.0,95,0.00,,---,0.00,VWS V14.00,2013-04-18 07:21:00,
2013-04-18 03:26:00,57.1,55.7,30.15,SE,127,0.0,0.0,95,0.00,,---,0.00,VWS V14.00,2013-04-18 07:26:00,
2013-04-18 03:31:00,57.0,55.6,30.15,SE,127,0.0,0.0,95,0.00,,---,0.00,VWS V14.00,2013-04-18 07:31:00,
2013-04-18 03:36:00,57.2,55.8,30.16,SE,127,0.0,0.0,95,0.00,,---,0.00,VWS V14.00,2013-04-18 07:36:00,
2013-04-18 03:41:00,57.4,56.0,30.15,SE,127,0.0,0.0,95,0.00,,---,0.00,VWS V14.00,2013-04-18 07:41:00,
2013-04-18 03:46:00,57.3,55.9,30.15,SE,127,0.0,0.0,95,0.00,,---,0.00,VWS V14.00,2013-04-18 07:46:00,
2013-04-18 03:51:00,57.1,55.7,30.15,SE,127,0.0,0.0,95,0.00,,---,0.00,VWS V14.00,2013-04-18 07:51:00,
2013-04-18 03:57:00,57.0,55.6,30.15,SE,127,0.0,0.0,95,0.00,,---,0.00,VWS V14.00,2013-04-18 07:57:00,
2013-04-18 04:01:00,56.8,55.4,30.16,SE,127,0.0,0.0,95,0.00,,---,0.00,VWS V14.00,2013-04-18 08:01:00,
2013-04-18 04:06:00,56.8,55.4,30.16,SE,127,0.0,0.0,95,0.00,,---,0.00,VWS V14.00,2013-04-18 08:06:00,
2013-04-18 04:11:00,56.8,55.4,30.16,SE,127,0.0,0.0,95,0.00,,---,0.00,VWS V14.00,2013-04-18 08:11:00,
2013-04-18 04:16:00,56.7,55.3,30.16,SE,127,0.0,0.0,95,0.00,,---,0.00,VWS V14.00,2013-04-18 08:16:00,
2013-04-18 04:21:00,56.7,55.3,30.16,SE,127,0.0,0.0,95,0.00,,---,0.00,VWS V14.00,2013-04-18 08:21:00,
2013-04-18 04:27:00,56.7,55.3,30.16,SE,127,0.0,0.0,95,0.00,,---,0.00,VWS V14.00,2013-04-18 08:27:00,
2013-04-18 04:32:00,56.6,55.2,30.16,SE,127,0.0,0.0,95,0.00,,---,0.00,VWS V14.00,2013-04-18 08:32:00,
2013-04-18 04:37:00,56.6,55.2,30.16,SE,127,0.0,0.0,95,0.00,,---,0.00,VWS V14.00,2013-04-18 08:37:00,
2013-04-18 04:42:00,56.6,55.2,30.16,SE,127,0.0,0.0,95,0.00,,---,0.00,VWS V14.00,2013-04-18 08:42:00,
2013-04-18 04:47:00,56.4,54.7,30.16,SE,127,0.0,0.0,94,0.00,,---,0.00,VWS V14.00,2013-04-18 08:47:00,
2013-04-18 04:52:00,56.2,54.5,30.16,SE,127,0.0,0.0,94,0.00,,---,0.00,VWS V14.00,2013-04-18 08:52:00,
2013-04-18 04:57:00,56.1,54.4,30.16,SE,127,0.0,0.0,94,0.00,,---,0.00,VWS V14.00,2013-04-18 08:57:00,
2013-04-18 05:02:00,56.0,54.3,30.16,SE,127,0.0,0.0,94,0.00,,---,0.00,VWS V14.00,2013-04-18 09:02:00,
2013-04-18 05:07:00,55.9,54.2,30.16,SE,127,0.0,0.0,94,0.00,,---,0.00,VWS V14.00,2013-04-18 09:07:00,
2013-04-18 05:12:00,55.8,54.1,30.17,SE,127,0.0,0.0,94,0.00,,---,0.00,VWS V14.00,2013-04-18 09:12:00,
2013-04-18 05:17:00,55.8,54.4,30.17,SE,127,0.0,0.0,95,0.00,,---,0.00,VWS V14.00,2013-04-18 09:17:00,
2013-04-18 05:22:00,55.8,54.4,30.17,SE,127,0.0,0.0,95,0.00,,---,0.00,VWS V14.00,2013-04-18 09:22:00,
2013-04-18 05:27:00,55.8,54.4,30.16,SE,127,0.0,0.0,95,0.00,,---,0.00,VWS V14.00,2013-04-18 09:27:00,
2013-04-18 05:32:00,55.5,53.8,30.16,SE,127,0.0,0.0,94,0.00,,---,0.00,VWS V14.00,2013-04-18 09:32:00,
2013-04-18 05:36:00,55.4,53.7,30.16,SE,127,0.0,0.0,94,0.00,,---,0.00,VWS V14.00,2013-04-18 09:36:00,
2013-04-18 05:42:00,55.4,54.0,30.16,SE,127,0.0,0.0,95,0.00,,---,0.00,VWS V14.00,2013-04-18 09:42:00,
2013-04-18 05:47:00,55.4,53.7,30.16,SE,127,0.0,0.0,94,0.00,,---,0.00,VWS V14.00,2013-04-18 09:47:00,
2013-04-18 05:52:00,55.3,53.6,30.17,SE,127,0.0,0.0,94,0.00,,---,0.00,VWS V14.00,2013-04-18 09:52:00,
2013-04-18 05:57:00,55.1,53.4,30.17,SE,127,0.0,0.0,94,0.00,,---,0.00,VWS V14.00,2013-04-18 09:57:00,
2013-04-18 06:02:00,55.1,53.4,30.17,SE,127,0.0,0.0,94,0.00,,---,0.00,VWS V14.00,2013-04-18 10:02:00,
2013-04-18 06:07:00,55.2,53.5,30.17,SE,127,0.0,0.0,94,0.00,,---,0.00,VWS V14.00,2013-04-18 10:07:00,
2013-04-18 06:12:00,55.2,53.5,30.17,SE,127,0.0,0.0,94,0.00,,---,0.00,VWS V14.00,2013-04-18 10:12:00,
2013-04-18 06:16:00,55.3,53.6,30.17,SE,127,0.0,0.0,94,0.00,,---,0.00,VWS V14.00,2013-04-18 10:16:00,
2013-04-18 06:21:00,55.3,53.6,30.17,SE,127,0.0,0.0,94,0.00,,---,0.00,VWS V14.00,2013-04-18 10:21:00,
2013-04-18 06:26:00,55.0,53.3,30.17,SE,127,0.0,0.0,94,0.00,,---,0.00,VWS V14.00,2013-04-18 10:26:00,
2013-04-18 06:31:00,54.8,53.1,30.17,SE,127,0.0,0.0,94,0.00,,---,0.00,VWS V14.00,2013-04-18 10:31:00,
2013-04-18 06:36:00,54.9,53.2,30.17,SE,127,0.0,0.0,94,0.00,,---,0.00,VWS V14.00,2013-04-18 10:36:00,
2013-04-18 06:41:00,55.0,53.6,30.18,SE,127,0.0,0.0,95,0.00,,---,0.00,VWS V14.00,2013-04-18 10:41:00,
2013-04-18 06:46:00,55.1,53.4,30.18,SE,127,0.0,0.0,94,0.00,,---,0.00,VWS V14.00,2013-04-18 10:46:00,
2013-04-18 06:51:00,55.2,53.8,30.18,SE,127,0.0,0.0,95,0.00,,---,0.00,VWS V14.00,2013-04-18 10:51:00,
2013-04-18 06:56:00,55.4,54.0,30.18,SE,127,0.0,0.0,95,0.00,,---,0.00,VWS V14.00,2013-04-18 10:56:00,
2013-04-18 07:01:00,55.6,54.2,30.18,SE,127,0.0,0.0,95,0.00,,---,0.00,VWS V14.00,2013-04-18 11:01:00,
2013-04-18 07:06:00,55.6,53.9,30.18,SE,127,0.0,0.0,94,0.00,,---,0.00,VWS V14.00,2013-04-18 11:06:00,
2013-04-18 07:12:00,55.7,54.3,30.18,SE,127,0.0,0.0,95,0.00,,---,0.00,VWS V14.00,2013-04-18 11:12:00,
2013-04-18 07:17:00,56.1,54.7,30.18,SE,127,0.0,0.0,95,0.00,,---,0.00,VWS V14.00,2013-04-18 11:17:00,
2013-04-18 07:22:00,56.9,55.5,30.18,SE,127,0.0,0.0,95,0.00,,---,0.00,VWS V14.00,2013-04-18 11:22:00,
2013-04-18 07:27:00,57.7,56.3,30.19,SE,127,0.0,0.0,95,0.00,,---,0.00,VWS V14.00,2013-04-18 11:27:00,
2013-04-18 07:32:00,58.7,57.6,30.19,SE,127,0.0,0.0,96,0.00,,---,0.00,VWS V14.00,2013-04-18 11:32:00,
2013-04-18 07:37:00,59.8,58.7,30.19,SE,127,0.0,0.0,96,0.00,,---,0.00,VWS V14.00,2013-04-18 11:37:00,
2013-04-18 07:42:00,61.0,59.9,30.19,SE,127,0.0,0.0,96,0.00,,---,0.00,VWS V14.00,2013-04-18 11:42:00,
2013-04-18 07:47:00,62.1,61.0,30.19,SE,127,0.0,0.0,96,0.00,,---,0.00,VWS V14.00,2013-04-18 11:47:00,
2013-04-18 07:52:00,62.9,61.8,30.19,SE,124,0.0,0.0,96,0.00,,---,0.00,VWS V14.00,2013-04-18 11:52:00,
2013-04-18 07:57:00,63.2,61.8,30.19,East,98,0.0,0.0,95,0.00,,---,0.00,VWS V14.00,2013-04-18 11:57:00,
2013-04-18 08:02:00,63.6,62.4,30.19,East,98,0.0,0.0,96,0.00,,---,0.00,VWS V14.00,2013-04-18 12:02:00,
2013-04-18 08:07:00,64.3,63.1,30.19,East,98,0.0,0.0,96,0.00,,---,0.00,VWS V14.00,2013-04-18 12:07:00,
2013-04-18 08:12:00,64.9,63.4,30.19,ESE,103,2.0,2.0,95,0.00,,---,0.00,VWS V14.00,2013-04-18 12:12:00,
2013-04-18 08:17:00,65.5,64.0,30.19,ESE,118,0.0,5.0,95,0.00,,---,0.00,VWS V14.00,2013-04-18 12:17:00,
2013-04-18 08:22:00,66.0,64.2,30.19,ESE,111,0.0,5.0,94,0.00,,---,0.00,VWS V14.00,2013-04-18 12:22:00,
2013-04-18 08:27:00,66.7,64.9,30.19,ESE,113,4.0,5.0,94,0.00,,---,0.00,VWS V14.00,2013-04-18 12:27:00,
2013-04-18 08:32:00,67.4,65.0,30.19,ESE,109,4.0,5.0,92,0.00,,---,0.00,VWS V14.00,2013-04-18 12:32:00,
2013-04-18 08:37:00,68.0,65.3,30.19,ESE,115,5.0,6.0,91,0.00,,---,0.00,VWS V14.00,2013-04-18 12:37:00,
2013-04-18 08:42:00,68.3,65.3,30.20,SE,124,7.0,8.0,90,0.00,,---,0.00,VWS V14.00,2013-04-18 12:42:00,
2013-04-18 08:47:00,68.6,64.9,30.19,ESE,110,5.0,8.0,88,0.00,,---,0.00,VWS V14.00,2013-04-18 12:47:00,
2013-04-18 08:52:00,69.2,65.5,30.19,ESE,103,8.0,8.0,88,0.00,,---,0.00,VWS V14.00,2013-04-18 12:52:00,
2013-04-18 08:57:00,69.7,65.3,30.19,ESE,120,9.0,11.0,86,0.00,,---,0.00,VWS V14.00,2013-04-18 12:57:00,
2013-04-18 09:02:00,70.2,65.8,30.20,ESE,103,7.0,9.0,86,0.00,,---,0.00,VWS V14.00,2013-04-18 13:02:00,
2013-04-18 09:07:00,70.2,64.8,30.20,ESE,113,6.0,14.0,83,0.00,,---,0.00,VWS V14.00,2013-04-18 13:07:00,
2013-04-18 09:12:00,70.3,65.2,30.20,ESE,114,8.0,14.0,84,0.00,,---,0.00,VWS V14.00,2013-04-18 13:12:00,
2013-04-18 09:17:00,70.1,64.4,30.20,ESE,110,11.0,14.0,82,0.00,,---,0.00,VWS V14.00,2013-04-18 13:17:00,
2013-04-18 09:22:00,69.6,64.2,30.20,ESE,121,8.0,14.0,83,0.00,,---,0.00,VWS V14.00,2013-04-18 13:22:00,
2013-04-18 09:27:00,69.5,64.1,30.20,SE,138,6.0,14.0,83,0.00,,---,0.00,VWS V14.00,2013-04-18 13:27:00,
2013-04-18 09:32:00,69.7,64.3,30.20,ESE,118,14.0,15.0,83,0.00,,---,0.00,VWS V14.00,2013-04-18 13:32:00,
2013-04-18 09:37:00,70.0,64.6,30.20,ESE,111,10.0,15.0,83,0.00,,---,0.00,VWS V14.00,2013-04-18 13:37:00,
2013-04-18 09:42:00,70.7,64.6,30.20,ESE,102,11.0,15.0,81,0.00,,---,0.00,VWS V14.00,2013-04-18 13:42:00,
2013-04-18 09:47:00,71.0,64.5,30.20,ESE,108,11.0,15.0,80,0.00,,---,0.00,VWS V14.00,2013-04-18 13:47:00,
2013-04-18 09:52:00,71.2,65.1,30.20,ESE,110,9.0,15.0,81,0.00,,---,0.00,VWS V14.00,2013-04-18 13:52:00,
2013-04-18 09:57:00,71.4,64.6,30.20,SE,124,8.0,15.0,79,0.00,,---,0.00,VWS V14.00,2013-04-18 13:57:00,
2013-04-18 10:02:00,71.2,64.0,30.20,SE,131,12.0,14.0,78,0.00,,---,0.00,VWS V14.00,2013-04-18 14:02:00,
2013-04-18 10:07:00,71.0,64.2,30.20,ESE,110,11.0,18.0,79,0.00,,---,0.00,VWS V14.00,2013-04-18 14:07:00,
2013-04-18 10:12:00,71.0,64.5,30.20,SE,141,9.0,18.0,80,0.00,,---,0.00,VWS V14.00,2013-04-18 14:12:00,
2013-04-18 10:17:00,70.8,64.0,30.20,SE,145,12.0,18.0,79,0.00,,---,0.00,VWS V14.00,2013-04-18 14:17:00,
2013-04-18 10:22:00,70.7,63.9,30.20,SE,129,11.0,18.0,79,0.00,,---,0.00,VWS V14.00,2013-04-18 14:22:00,
2013-04-18 10:27:00,70.7,63.9,30.20,SE,128,16.0,18.0,79,0.00,,---,0.00,VWS V14.00,2013-04-18 14:27:00,
2013-04-18 10:32:00,70.8,63.6,30.20,ESE,123,5.0,16.0,78,0.00,,---,0.00,VWS V14.00,2013-04-18 14:32:00,
2013-04-18 10:37:00,71.3,64.5,30.21,ESE,120,13.0,16.0,79,0.00,,---,0.00,VWS V14.00,2013-04-18 14:37:00,
2013-04-18 10:42:00,71.5,63.5,30.21,ESE,123,9.0,16.0,76,0.00,,---,0.00,VWS V14.00,2013-04-18 14:42:00,
2013-04-18 10:47:00,71.4,63.5,30.21,ESE,116,13.0,16.0,76,0.00,,---,0.00,VWS V14.00,2013-04-18 14:47:00,
2013-04-18 10:52:00,71.7,63.7,30.21,ESE,116,12.0,16.0,76,0.00,,---,0.00,VWS V14.00,2013-04-18 14:52:00,
2013-04-18 10:57:00,72.6,64.6,30.21,SE,128,11.0,16.0,76,0.00,,---,0.00,VWS V14.00,2013-04-18 14:57:00,
2013-04-18 11:02:00,73.2,64.4,30.21,SE,128,11.0,16.0,74,0.00,,---,0.00,VWS V14.00,2013-04-18 15:02:00,
2013-04-18 11:07:00,73.1,63.9,30.21,ESE,118,13.0,16.0,73,0.00,,---,0.00,VWS V14.00,2013-04-18 15:07:00,
2013-04-18 11:12:00,73.6,63.2,30.21,SE,124,15.0,20.0,70,0.00,,---,0.00,VWS V14.00,2013-04-18 15:12:00,
2013-04-18 11:17:00,73.5,63.1,30.20,SE,143,10.0,20.0,70,0.00,,---,0.00,VWS V14.00,2013-04-18 15:17:00,
2013-04-18 11:22:00,74.0,63.6,30.21,SE,129,14.0,20.0,70,0.00,,---,0.00,VWS V14.00,2013-04-18 15:22:00,
2013-04-18 11:27:00,74.3,63.5,30.21,East,98,12.0,20.0,69,0.00,,---,0.00,VWS V14.00,2013-04-18 15:27:00,
2013-04-18 11:32:00,74.0,63.6,30.21,SE,130,17.0,20.0,70,0.00,,---,0.00,VWS V14.00,2013-04-18 15:32:00,
2013-04-18 11:37:00,73.6,64.4,30.21,SE,135,13.0,20.0,73,0.00,,---,0.00,VWS V14.00,2013-04-18 15:37:00,
2013-04-18 11:42:00,73.9,63.9,30.21,ESE,118,15.0,20.0,71,0.00,,---,0.00,VWS V14.00,2013-04-18 15:42:00,
2013-04-18 11:47:00,74.5,64.5,30.21,SE,136,8.0,20.0,71,0.00,,---,0.00,VWS V14.00,2013-04-18 15:47:00,
2013-04-18 11:52:00,74.5,64.1,30.21,ESE,123,13.0,20.0,70,0.00,,---,0.00,VWS V14.00,2013-04-18 15:52:00,
2013-04-18 11:57:00,74.3,63.9,30.21,SE,125,14.0,21.0,70,0.00,,---,0.00,VWS V14.00,2013-04-18 15:57:00,
2013-04-18 12:02:00,74.3,64.3,30.21,ESE,102,8.0,19.0,71,0.00,,---,0.00,VWS V14.00,2013-04-18 16:02:00,
2013-04-18 12:07:00,74.0,63.2,30.21,SSE,162,9.0,19.0,69,0.00,,---,0.00,VWS V14.00,2013-04-18 16:07:00,
2013-04-18 12:12:00,73.6,62.4,30.20,SE,134,14.0,19.0,68,0.00,,---,0.00,VWS V14.00,2013-04-18 16:12:00,
2013-04-18 12:17:00,73.9,63.5,30.20,SE,131,16.0,20.0,70,0.00,,---,0.00,VWS V14.00,2013-04-18 16:17:00,
2013-04-18 12:22:00,73.7,63.3,30.20,ESE,120,16.0,20.0,70,0.00,,---,0.00,VWS V14.00,2013-04-18 16:22:00,
2013-04-18 12:27:00,73.4,63.8,30.20,SE,142,13.0,20.0,72,0.00,,---,0.00,VWS V14.00,2013-04-18 16:27:00,
2013-04-18 12:32:00,73.3,63.3,30.20,ESE,123,12.0,22.0,71,0.00,,---,0.00,VWS V14.00,2013-04-18 16:32:00,
2013-04-18 12:37:00,73.9,62.7,30.20,ESE,115,16.0,22.0,68,0.00,,---,0.00,VWS V14.00,2013-04-18 16:37:00,
2013-04-18 12:42:00,74.2,64.2,30.20,ESE,113,19.0,22.0,71,0.00,,---,0.00,VWS V14.00,2013-04-18 16:42:00,
2013-04-18 12:47:00,74.5,64.1,30.20,ESE,118,12.0,22.0,70,0.00,,---,0.00,VWS V14.00,2013-04-18 16:47:00,
2013-04-18 12:52:00,74.7,63.5,30.20,ESE,106,11.0,22.0,68,0.00,,---,0.00,VWS V14.00,2013-04-18 16:52:00,
2013-04-18 12:57:00,74.9,63.2,30.20,ESE,105,14.0,22.0,67,0.00,,---,0.00,VWS V14.00,2013-04-18 16:57:00,
2013-04-18 13:02:00,74.7,62.6,30.20,ESE,108,11.0,20.0,66,0.00,,---,0.00,VWS V14.00,2013-04-18 17:02:00,
2013-04-18 13:07:00,74.0,62.8,30.20,SE,140,12.0,20.0,68,0.00,,---,0.00,VWS V14.00,2013-04-18 17:07:00,
2013-04-18 13:12:00,73.7,63.3,30.20,ESE,121,6.0,20.0,70,0.00,,---,0.00,VWS V14.00,2013-04-18 17:12:00,
2013-04-18 13:17:00,74.1,63.7,30.19,ESE,112,12.0,20.0,70,0.00,,---,0.00,VWS V14.00,2013-04-18 17:17:00,
2013-04-18 13:22:00,74.1,63.7,30.19,ESE,109,16.0,20.0,70,0.00,,---,0.00,VWS V14.00,2013-04-18 17:22:00,
2013-04-18 13:27:00,73.8,63.0,30.19,SE,126,19.0,20.0,69,0.00,,---,0.00,VWS V14.00,2013-04-18 17:27:00,
2013-04-18 13:32:00,73.9,63.5,30.19,ESE,106,13.0,20.0,70,0.00,,---,0.00,VWS V14.00,2013-04-18 17:32:00,
2013-04-18 13:37:00,74.1,63.7,30.19,SE,136,13.0,20.0,70,0.00,,---,0.00,VWS V14.00,2013-04-18 17:37:00,
2013-04-18 13:42:00,73.6,63.2,30.19,SSE,152,13.0,21.0,70,0.00,,---,0.00,VWS V14.00,2013-04-18 17:42:00,
2013-04-18 13:47:00,74.3,64.3,30.19,ESE,119,15.0,21.0,71,0.00,,---,0.00,VWS V14.00,2013-04-18 17:47:00,
2013-04-18 13:52:00,73.9,63.5,30.19,SE,141,10.0,21.0,70,0.00,,---,0.00,VWS V14.00,2013-04-18 17:52:00,
2013-04-18 13:57:00,73.9,63.9,30.19,SE,135,9.0,21.0,71,0.00,,---,0.00,VWS V14.00,2013-04-18 17:57:00,
2013-04-18 14:02:00,74.8,64.0,30.19,SE,137,13.0,14.0,69,0.00,,---,0.00,VWS V14.00,2013-04-18 18:02:00,
2013-04-18 14:07:00,74.5,63.3,30.19,SE,146,9.0,19.0,68,0.00,,---,0.00,VWS V14.00,2013-04-18 18:07:00,
2013-04-18 14:12:00,74.2,63.4,30.19,SE,129,10.0,19.0,69,0.00,,---,0.00,VWS V14.00,2013-04-18 18:12:00,
2013-04-18 14:17:00,74.7,64.3,30.18,ESE,116,20.0,20.0,70,0.00,,---,0.00,VWS V14.00,2013-04-18 18:17:00,
2013-04-18 14:22:00,74.5,63.7,30.18,SE,131,10.0,20.0,69,0.00,,---,0.00,VWS V14.00,2013-04-18 18:22:00,
2013-04-18 14:27:00,74.1,63.3,30.18,ESE,123,10.0,21.0,69,0.00,,---,0.00,VWS V14.00,2013-04-18 18:27:00,
2013-04-18 14:32:00,73.8,63.4,30.18,SE,137,12.0,20.0,70,0.00,,---,0.00,VWS V14.00,2013-04-18 18:32:00,
2013-04-18 14:37:00,74.4,64.4,30.18,SE,143,9.0,20.0,71,0.00,,---,0.00,VWS V14.00,2013-04-18 18:37:00,
2013-04-18 14:42:00,73.9,63.5,30.18,SE,145,11.0,20.0,70,0.00,,---,0.00,VWS V14.00,2013-04-18 18:42:00,
2013-04-18 14:47:00,73.7,63.7,30.18,SSE,149,10.0,20.0,71,0.00,,---,0.00,VWS V14.00,2013-04-18 18:47:00,
2013-04-18 14:52:00,74.0,63.2,30.18,SSE,147,8.0,20.0,69,0.00,,---,0.00,VWS V14.00,2013-04-18 18:52:00,
2013-04-18 14:57:00,73.5,63.9,30.17,SSE,152,17.0,20.0,72,0.00,,---,0.00,VWS V14.00,2013-04-18 18:57:00,
2013-04-18 15:02:00,73.4,63.8,30.17,SE,141,16.0,19.0,72,0.00,,---,0.00,VWS V14.00,2013-04-18 19:02:00,
2013-04-18 15:07:00,73.2,64.0,30.17,ESE,113,11.0,19.0,73,0.00,,---,0.00,VWS V14.00,2013-04-18 19:07:00,
2013-04-18 15:12:00,74.4,65.2,30.17,SE,136,10.0,19.0,73,0.00,,---,0.00,VWS V14.00,2013-04-18 19:12:00,
2013-04-18 15:17:00,74.4,64.0,30.16,ESE,104,12.0,19.0,70,0.00,,---,0.00,VWS V14.00,2013-04-18 19:17:00,
2013-04-18 15:22:00,73.9,63.1,30.16,SE,131,14.0,19.0,69,0.00,,---,0.00,VWS V14.00,2013-04-18 19:22:00,
2013-04-18 15:27:00,73.6,63.6,30.17,SE,144,14.0,19.0,71,0.00,,---,0.00,VWS V14.00,2013-04-18 19:27:00,
2013-04-18 15:32:00,73.6,63.6,30.16,SE,125,14.0,20.0,71,0.00,,---,0.00,VWS V14.00,2013-04-18 19:32:00,
2013-04-18 15:37:00,73.9,63.9,30.16,SE,132,11.0,21.0,71,0.00,,---,0.00,VWS V14.00,2013-04-18 19:37:00,
2013-04-18 15:42:00,74.4,63.6,30.15,SE,131,10.0,21.0,69,0.00,,---,0.00,VWS V14.00,2013-04-18 19:42:00,
2013-04-18 15:47:00,74.6,64.6,30.15,ESE,117,9.0,21.0,71,0.00,,---,0.00,VWS V14.00,2013-04-18 19:47:00,
2013-04-18 15:52:00,74.5,64.5,30.15,ESE,112,10.0,21.0,71,0.00,,---,0.00,VWS V14.00,2013-04-18 19:52:00,
2013-04-18 15:57:00,73.5,63.1,30.15,SSE,148,10.0,21.0,70,0.00,,---,0.00,VWS V14.00,2013-04-18 19:57:00,
2013-04-18 16:02:00,73.6,64.0,30.15,SE,127,7.0,17.0,72,0.00,,---,0.00,VWS V14.00,2013-04-18 20:02:00,
2013-04-18 16:07:00,73.6,63.6,30.15,SSE,150,14.0,17.0,71,0.00,,---,0.00,VWS V14.00,2013-04-18 20:07:00,
2013-04-18 16:12:00,72.9,63.0,30.15,ESE,121,14.0,21.0,71,0.00,,---,0.00,VWS V14.00,2013-04-18 20:12:00,
2013-04-18 16:17:00,73.1,63.9,30.15,SE,126,18.0,21.0,73,0.00,,---,0.00,VWS V14.00,2013-04-18 20:17:00,
2013-04-18 16:22:00,73.1,63.5,30.14,SE,133,11.0,21.0,72,0.00,,---,0.00,VWS V14.00,2013-04-18 20:22:00,
2013-04-18 16:27:00,73.6,64.0,30.14,ESE,115,16.0,21.0,72,0.00,,---,0.00,VWS V14.00,2013-04-18 20:27:00,
2013-04-18 16:32:00,73.2,63.2,30.14,ESE,115,15.0,18.0,71,0.00,,---,0.00,VWS V14.00,2013-04-18 20:32:00,
2013-04-18 16:37:00,72.6,63.1,30.14,SE,124,11.0,18.0,72,0.00,,---,0.00,VWS V14.00,2013-04-18 20:37:00,
2013-04-18 16:42:00,72.8,62.9,30.14,SE,134,11.0,18.0,71,0.00,,---,0.00,VWS V14.00,2013-04-18 20:42:00,
2013-04-18 16:47:00,73.1,63.5,30.14,ESE,115,10.0,18.0,72,0.00,,---,0.00,VWS V14.00,2013-04-18 20:47:00,
2013-04-18 16:52:00,72.7,63.2,30.14,ESE,123,8.0,18.0,72,0.00,,---,0.00,VWS V14.00,2013-04-18 20:52:00,
2013-04-18 16:57:00,72.4,63.3,30.14,ESE,114,12.0,18.0,73,0.00,,---,0.00,VWS V14.00,2013-04-18 20:57:00,
2013-04-18 17:02:00,72.3,63.2,30.14,ESE,103,9.0,15.0,73,0.00,,---,0.00,VWS V14.00,2013-04-18 21:02:00,
2013-04-18 17:07:00,72.3,63.6,30.14,SE,131,7.0,15.0,74,0.00,,---,0.00,VWS V14.00,2013-04-18 21:07:00,
2013-04-18 17:12:00,72.2,63.5,30.14,ESE,116,5.0,15.0,74,0.00,,---,0.00,VWS V14.00,2013-04-18 21:12:00,
2013-04-18 17:17:00,71.9,63.2,30.14,SSE,156,9.0,15.0,74,0.00,,---,0.00,VWS V14.00,2013-04-18 21:17:00,
2013-04-18 17:22:00,71.7,63.4,30.14,SE,130,9.0,15.0,75,0.00,,---,0.00,VWS V14.00,2013-04-18 21:22:00,
2013-04-18 17:27:00,71.4,63.5,30.14,ESE,123,8.0,15.0,76,0.00,,---,0.00,VWS V14.00,2013-04-18 21:27:00,
2013-04-18 17:32:00,71.5,63.9,30.13,SE,139,9.0,11.0,77,0.00,,---,0.00,VWS V14.00,2013-04-18 21:32:00,
2013-04-18 17:37:00,71.7,63.7,30.13,SE,125,13.0,13.0,76,0.00,,---,0.00,VWS V14.00,2013-04-18 21:37:00,
2013-04-18 17:42:00,71.6,63.6,30.13,SSE,152,9.0,13.0,76,0.00,,---,0.00,VWS V14.00,2013-04-18 21:42:00,
2013-04-18 17:47:00,71.5,63.5,30.13,SE,141,11.0,13.0,76,0.00,,---,0.00,VWS V14.00,2013-04-18 21:47:00,
2013-04-18 17:52:00,71.1,63.9,30.13,SE,130,9.0,13.0,78,0.00,,---,0.00,VWS V14.00,2013-04-18 21:52:00,
2013-04-18 17:57:00,70.9,63.7,30.13,SE,132,10.0,13.0,78,0.00,,---,0.00,VWS V14.00,2013-04-18 21:57:00,
2013-04-18 18:02:00,70.8,63.6,30.13,SE,138,8.0,12.0,78,0.00,,---,0.00,VWS V14.00,2013-04-18 22:02:00,
2013-04-18 18:07:00,70.7,63.5,30.13,SE,139,9.0,12.0,78,0.00,,---,0.00,VWS V14.00,2013-04-18 22:07:00,
2013-04-18 18:12:00,70.6,63.4,30.13,SE,125,8.0,12.0,78,0.00,,---,0.00,VWS V14.00,2013-04-18 22:12:00,
2013-04-18 18:17:00,70.5,63.7,30.12,SE,133,7.0,12.0,79,0.00,,---,0.00,VWS V14.00,2013-04-18 22:17:00,
2013-04-18 18:22:00,70.4,63.6,30.13,SSE,148,9.0,12.0,79,0.00,,---,0.00,VWS V14.00,2013-04-18 22:22:00,
2013-04-18 18:27:00,70.3,63.8,30.13,SE,140,5.0,12.0,80,0.00,,---,0.00,VWS V14.00,2013-04-18 22:27:00,
2013-04-18 18:32:00,70.3,63.8,30.12,SE,133,9.0,12.0,80,0.00,,---,0.00,VWS V14.00,2013-04-18 22:32:00,
2013-04-18 18:37:00,70.4,64.3,30.12,SE,132,8.0,13.0,81,0.00,,---,0.00,VWS V14.00,2013-04-18 22:37:00,
2013-04-18 18:42:00,70.8,64.3,30.12,ESE,118,8.0,13.0,80,0.00,,---,0.00,VWS V14.00,2013-04-18 22:42:00,
2013-04-18 18:47:00,70.6,64.1,30.11,ESE,123,10.0,14.0,80,0.00,,---,0.00,VWS V14.00,2013-04-18 22:47:00,
2013-04-18 18:52:00,70.4,64.3,30.11,SE,126,10.0,15.0,81,0.00,,---,0.00,VWS V14.00,2013-04-18 22:52:00,
2013-04-18 18:57:00,70.1,64.0,30.11,SE,133,11.0,15.0,81,0.00,,---,0.00,VWS V14.00,2013-04-18 22:57:00,
2013-04-18 19:02:00,70.0,64.3,30.11,SE,131,7.0,11.0,82,0.00,,---,0.00,VWS V14.00,2013-04-18 23:02:00,
2013-04-18 19:07:00,69.9,64.2,30.11,SE,133,9.0,12.0,82,0.00,,---,0.00,VWS V14.00,2013-04-18 23:07:00,
2013-04-18 19:12:00,69.6,64.2,30.11,SE,129,12.0,14.0,83,0.00,,---,0.00,VWS V14.00,2013-04-18 23:12:00,
2013-04-18 19:17:00,69.2,64.5,30.11,SSE,162,8.0,15.0,85,0.00,,---,0.00,VWS V14.00,2013-04-18 23:17:00,
2013-04-18 19:22:00,69.0,64.6,30.11,SE,129,8.0,15.0,86,0.00,,---,0.00,VWS V14.00,2013-04-18 23:22:00,
2013-04-18 19:27:00,68.8,64.8,30.11,SE,142,10.0,15.0,87,0.00,,---,0.00,VWS V14.00,2013-04-18 23:27:00,
2013-04-18 19:32:00,68.7,64.3,30.11,SE,131,7.0,12.0,86,0.00,,---,0.00,VWS V14.00,2013-04-18 23:32:00,
2013-04-18 19:37:00,68.6,64.2,30.11,ESE,121,6.0,12.0,86,0.00,,---,0.00,VWS V14.00,2013-04-18 23:37:00,
2013-04-18 19:42:00,68.7,64.3,30.11,ESE,119,5.0,12.0,86,0.00,,---,0.00,VWS V14.00,2013-04-18 23:42:00,
2013-04-18 19:47:00,68.7,64.3,30.10,ESE,123,7.0,12.0,86,0.00,,---,0.00,VWS V14.00,2013-04-18 23:47:00,
2013-04-18 19:52:00,68.8,64.4,30.10,SE,127,6.0,12.0,86,0.00,,---,0.00,VWS V14.00,2013-04-18 23:52:00,
2013-04-18 19:57:00,68.8,64.4,30.10,ESE,116,5.0,12.0,86,0.00,,---,0.00,VWS V14.00,2013-04-18 23:57:00,
2013-04-18 20:02:00,68.8,64.4,30.10,SE,131,7.0,11.0,86,0.00,,---,0.00,VWS V14.00,2013-04-19 00:02:00,
2013-04-18 20:07:00,68.8,64.4,30.11,ESE,103,9.0,11.0,86,0.00,,---,0.00,VWS V14.00,2013-04-19 00:07:00,
2013-04-18 20:12:00,68.7,64.7,30.10,SE,131,8.0,11.0,87,0.00,,---,0.00,VWS V14.00,2013-04-19 00:12:00,
2013-04-18 20:17:00,68.7,64.7,30.10,SE,124,7.0,11.0,87,0.00,,---,0.00,VWS V14.00,2013-04-19 00:17:00,
2013-04-18 20:22:00,68.6,64.6,30.10,SE,132,9.0,11.0,87,0.00,,---,0.00,VWS V14.00,2013-04-19 00:22:00,
2013-04-18 20:27:00,68.6,64.6,30.10,ESE,116,8.0,11.0,87,0.00,,---,0.00,VWS V14.00,2013-04-19 00:27:00,
2013-04-18 20:32:00,68.6,64.6,30.10,SE,135,8.0,9.0,87,0.00,,---,0.00,VWS V14.00,2013-04-19 00:32:00,
2013-04-18 20:37:00,68.6,64.6,30.11,SE,135,7.0,9.0,87,0.00,,---,0.00,VWS V14.00,2013-04-19 00:37:00,
2013-04-18 20:42:00,68.4,64.7,30.11,SE,142,4.0,9.0,88,0.00,,---,0.00,VWS V14.00,2013-04-19 00:42:00,
2013-04-18 20:47:00,68.1,64.7,30.11,SSE,162,5.0,9.0,89,0.00,,---,0.01,VWS V14.00,2013-04-19 00:47:00,
2013-04-18 20:52:00,67.9,64.9,30.11,SSE,157,3.0,9.0,90,0.00,,---,0.01,VWS V14.00,2013-04-19 00:52:00,
2013-04-18 20:57:00,67.6,64.6,30.11,SSE,154,2.0,9.0,90,0.07,,---,0.02,VWS V14.00,2013-04-19 00:57:00,
2013-04-18 21:02:00,67.5,64.8,30.11,SSE,155,2.0,6.0,91,0.13,,---,0.03,VWS V14.00,2013-04-19 01:02:00,
2013-04-18 21:07:00,67.4,65.0,30.11,ESE,117,6.0,7.0,92,0.07,,---,0.03,VWS V14.00,2013-04-19 01:07:00,
2013-04-18 21:12:00,67.4,65.0,30.11,SE,134,7.0,9.0,92,0.04,,---,0.03,VWS V14.00,2013-04-19 01:12:00,
2013-04-18 21:17:00,67.4,65.0,30.11,SSE,147,6.0,10.0,92,0.00,,---,0.03,VWS V14.00,2013-04-19 01:17:00,
2013-04-18 21:22:00,67.4,65.0,30.11,SE,138,7.0,10.0,92,0.00,,---,0.03,VWS V14.00,2013-04-19 01:22:00,
2013-04-18 21:27:00,67.4,65.0,30.11,SE,129,5.0,10.0,92,0.00,,---,0.03,VWS V14.00,2013-04-19 01:27:00,
2013-04-18 21:32:00,67.5,65.1,30.11,SE,127,7.0,9.0,92,0.00,,---,0.03,VWS V14.00,2013-04-19 01:32:00,
2013-04-18 21:37:00,67.6,65.2,30.11,SSE,147,6.0,9.0,92,0.00,,---,0.03,VWS V14.00,2013-04-19 01:37:00,
2013-04-18 21:42:00,67.7,65.3,30.11,SE,136,6.0,9.0,92,0.00,,---,0.03,VWS V14.00,2013-04-19 01:42:00,
2013-04-18 21:47:00,67.9,65.5,30.11,SSE,148,5.0,11.0,92,0.00,,---,0.03,VWS V14.00,2013-04-19 01:47:00,
2013-04-18 21:52:00,67.9,65.5,30.11,ESE,118,6.0,11.0,92,0.00,,---,0.03,VWS V14.00,2013-04-19 01:52:00,
2013-04-18 21:57:00,67.8,65.4,30.11,SSE,149,10.0,14.0,92,0.00,,---,0.03,VWS V14.00,2013-04-19 01:57:00,
2013-04-18 22:02:00,67.7,65.3,30.11,SE,137,9.0,14.0,92,0.00,,---,0.03,VWS V14.00,2013-04-19 02:02:00,
2013-04-18 22:07:00,67.7,65.3,30.10,SSE,149,6.0,14.0,92,0.00,,---,0.03,VWS V14.00,2013-04-19 02:07:00,
2013-04-18 22:12:00,67.7,65.3,30.10,SE,138,10.0,14.0,92,0.00,,---,0.03,VWS V14.00,2013-04-19 02:12:00,
2013-04-18 22:17:00,67.9,65.5,30.10,SE,140,9.0,14.0,92,0.00,,---,0.03,VWS V14.00,2013-04-19 02:17:00,
2013-04-18 22:22:00,67.9,65.5,30.10,SSE,150,9.0,14.0,92,0.00,,---,0.03,VWS V14.00,2013-04-19 02:22:00,
2013-04-18 22:27:00,67.8,65.4,30.10,SE,139,7.0,14.0,92,0.00,,---,0.03,VWS V14.00,2013-04-19 02:27:00,
2013-04-18 22:32:00,67.8,65.4,30.10,SE,139,5.0,8.0,92,0.00,,---,0.03,VWS V14.00,2013-04-19 02:32:00,
2013-04-18 22:37:00,67.7,65.3,30.10,SE,141,5.0,9.0,92,0.00,,---,0.03,VWS V14.00,2013-04-19 02:37:00,
2013-04-18 22:42:00,67.7,65.3,30.10,SSE,147,4.0,9.0,92,0.00,,---,0.03,VWS V14.00,2013-04-19 02:42:00,
2013-04-18 22:47:00,67.7,65.3,30.10,SE,143,4.0,9.0,92,0.00,,---,0.03,VWS V14.00,2013-04-19 02:47:00,
2013-04-18 22:52:00,67.7,65.3,30.09,SSE,160,5.0,9.0,92,0.00,,---,0.03,VWS V14.00,2013-04-19 02:52:00,
2013-04-18 22:57:00,67.7,65.3,30.09,SSE,152,4.0,9.0,92,0.00,,---,0.03,VWS V14.00,2013-04-19 02:57:00,
2013-04-18 23:02:00,67.7,65.3,30.09,SSE,159,3.0,8.0,92,0.00,,---,0.03,VWS V14.00,2013-04-19 03:02:00,
2013-04-18 23:07:00,67.7,65.3,30.10,SSE,166,6.0,10.0,92,0.00,,---,0.03,VWS V14.00,2013-04-19 03:07:00,
2013-04-18 23:12:00,67.6,64.9,30.10,SSE,155,3.0,10.0,91,0.00,,---,0.03,VWS V14.00,2013-04-19 03:12:00,
2013-04-18 23:17:00,67.5,64.8,30.09,SSE,152,5.0,10.0,91,0.00,,---,0.03,VWS V14.00,2013-04-19 03:17:00,
2013-04-18 23:22:00,67.3,64.6,30.10,SSE,157,2.0,10.0,91,0.00,,---,0.03,VWS V14.00,2013-04-19 03:22:00,
2013-04-18 23:28:00,67.3,64.9,30.09,SSE,166,5.0,10.0,92,0.00,,---,0.03,VWS V14.00,2013-04-19 03:28:00,
2013-04-18 23:33:00,67.2,64.8,30.10,SSE,162,5.0,7.0,92,0.00,,---,0.03,VWS V14.00,2013-04-19 03:33:00,
2013-04-18 23:38:00,67.1,64.7,30.09,South,170,6.0,8.0,92,0.00,,---,0.03,VWS V14.00,2013-04-19 03:38:00,
2013-04-18 23:43:00,67.1,64.7,30.09,SSE,166,4.0,8.0,92,0.00,,---,0.03,VWS V14.00,2013-04-19 03:43:00,
2013-04-18 23:48:00,67.0,64.6,30.09,SSE,156,6.0,8.0,92,0.00,,---,0.03,VWS V14.00,2013-04-19 03:48:00,
2013-04-18 23:53:00,67.0,64.6,30.09,South,169,5.0,8.0,92,0.00,,---,0.03,VWS V14.00,2013-04-19 03:53:00,
2013-04-18 23:58:00,67.0,64.9,30.09,South,179,7.0,8.0,93,0.00,,---,0.00,VWS V14.00,2013-04-19 03:58:00,